Time;durP1;ratioP1;P1;durP2;ratioP2;P2;SDS_P1;SDS_P2;PMS_P1;PMS_P2;Temp;Humidity;BMP_temperature;BMP_pressure;BME280_temperature;BME280_humidity;BME280_pressure;Samples;Min_cycle;Max_cycle;Signal;HPM_P1;HPM_P2
2023/09/21 00:00:09;;;;;;;;;;;;;;;;;;5090347;28;19928;-70
2023/09/21 00:02:36;;;;;;;;;;;;;;;;;;5090778;28;19935;-69
2023/09/21 00:05:06;;;;;;;;;;;;;;;;;;5090649;28;19925;-69
2023/09/21 00:07:36;;;;;;;;;;;;;;;;;;5089900;28;20022;-69
2023/09/21 00:10:03;;;;;;;;;;;;;;;;;;5086512;28;19978;-69
2023/09/21 00:12:31;;;;;;;;;;;;;;;;;;5084708;28;19924;-69
2023/09/21 00:15:04;;;;;;;;;;;;;;;;;;5089695;28;20628;-69
2023/09/21 00:17:32;;;;;;;;;;;;;;;;;;5091833;28;20439;-70
2023/09/21 00:20:00;;;;;;;;;;;;;;;;;;5090967;28;19924;-69
2023/09/21 00:22:28;;;;;;;;;;;;;;;;;;5088311;28;20019;-69
2023/09/21 00:24:55;;;;;;;;;;;;;;;;;;5090764;28;19946;-69
2023/09/21 00:27:22;;;;;;;;;;;;;;;;;;5088740;28;19924;-69
2023/09/21 00:29:49;;;;;;;;;;;;;;;;;;5089742;28;19970;-70
2023/09/21 00:32:16;;;;;;;;;;;;;;;;;;5091217;28;20348;-69
2023/09/21 00:34:43;;;;;;;;;;;;;;;;;;5090572;28;19924;-69
2023/09/21 00:37:11;;;;;;;;;;;;;;;;;;5089198;28;19967;-70
2023/09/21 00:39:38;;;;;;;;;;;;;;;;;;5088052;28;19989;-69
2023/09/21 00:42:05;;;;;;;;;;;;;;;;;;5090518;28;20280;-69
2023/09/21 00:44:32;;;;;;;;;;;;;;;;;;5086574;28;19970;-69
2023/09/21 00:47:00;;;;;;;;;;;;;;;;;;5089645;28;20345;-69
2023/09/21 00:49:29;;;;;;;;;;;;;;;;;;5090609;28;19931;-69
2023/09/21 00:51:56;;;;;;;;;;;;;;;;;;5087034;28;19962;-69
2023/09/21 00:54:23;;;;;;;;;;;;;;;;;;5091203;28;19977;-69
2023/09/21 00:56:52;;;;;;;;;;;;;;;;;;5090483;28;20407;-69
2023/09/21 00:59:19;;;;;;;;;;;;;;;;;;5090841;28;19938;-69
2023/09/21 01:01:46;;;;;;;;;;;;;;;;;;5089072;28;19924;-69
2023/09/21 01:04:13;;;;;;;;;;;;;;;;;;5089856;28;19935;-69
2023/09/21 01:06:41;;;;;;;;;;;;;;;;;;5089208;28;20412;-70
2023/09/21 01:09:13;;;;;;;;;;;;;;;;;;5090392;28;19924;-69
2023/09/21 01:11:40;;;;;;;;;;;;;;;;;;5090416;28;20011;-69
2023/09/21 01:14:07;;;;;;;;;;;;;;;;;;5089226;28;19924;-69
2023/09/21 01:16:34;;;;;;;;;;;;;;;;;;5094531;28;19924;-70
2023/09/21 01:19:01;;;;;;;;;;;;;;;;;;5090491;28;19986;-69
2023/09/21 01:21:28;;;;;;;;;;;;;;;;;;5093860;28;19966;-70
2023/09/21 01:23:55;;;;;;;;;;;;;;;;;;5092823;28;19924;-69
2023/09/21 01:26:22;;;;;;;;;;;;;;;;;;5093871;28;19928;-69
2023/09/21 01:28:49;;;;;;;;;;;;;;;;;;5094542;28;19924;-69
2023/09/21 01:31:17;;;;;;;;;;;;;;;;;;5089837;28;20321;-70
2023/09/21 01:33:44;;;;;;;;;;;;;;;;;;5091080;28;19932;-69
2023/09/21 01:36:12;;;;;;;;;;;;;;;;;;5093623;28;19928;-69
2023/09/21 01:38:43;;;;;;;;;;;;;;;;;;5091763;28;19924;-69
2023/09/21 01:41:10;;;;;;;;;;;;;;;;;;5091012;28;19931;-69
2023/09/21 01:43:39;;;;;;;;;;;;;;;;;;5093874;28;20015;-69
2023/09/21 01:46:06;;;;;;;;;;;;;;;;;;5092112;28;19932;-69
2023/09/21 01:48:33;;;;;;;;;;;;;;;;;;5093038;28;20390;-69
2023/09/21 01:51:00;;;;;;;;;;;;;;;;;;5093919;28;20018;-69
2023/09/21 01:53:27;;;;;;;;;;;;;;;;;;5093361;28;19986;-70
2023/09/21 01:55:55;;;;;;;;;;;;;;;;;;5093954;28;20398;-69
2023/09/21 01:58:23;;;;;;;;;;;;;;;;;;5093763;28;19928;-69
2023/09/21 02:00:50;;;;;;;;;;;;;;;;;;5094426;28;20018;-69
2023/09/21 02:03:17;;;;;;;;;;;;;;;;;;5093159;28;19936;-69
2023/09/21 02:05:46;;;;;;;;;;;;;;;;;;5092093;28;19924;-69
2023/09/21 02:08:13;;;;;;;;;;;;;;;;;;5092359;28;20337;-69
2023/09/21 02:10:40;;;;;;;;;;;;;;;;;;5093644;28;20371;-69
2023/09/21 02:13:07;;;;;;;;;;;;;;;;;;5092425;28;19938;-69
2023/09/21 02:15:35;;;;;;;;;;;;;;;;;;5093678;28;19941;-70
2023/09/21 02:18:02;;;;;;;;;;;;;;;;;;5092087;28;19928;-69
2023/09/21 02:20:30;;;;;;;;;;;;;;;;;;5093663;28;19931;-69
2023/09/21 02:23:00;;;;;;;;;;;;;;;;;;5088674;28;19931;-69
2023/09/21 02:25:27;;;;;;;;;;;;;;;;;;5091331;28;19932;-69
2023/09/21 02:27:54;;;;;;;;;;;;;;;;;;5092426;28;19946;-69
2023/09/21 02:30:21;;;;;;;;;;;;;;;;;;5093901;28;19924;-69
2023/09/21 02:32:49;;;;;;;;;;;;;;;;;;5093888;28;19963;-69
2023/09/21 02:35:16;;;;;;;;;;;;;;;;;;5093897;28;19963;-69
2023/09/21 02:37:44;;;;;;;;;;;;;;;;;;5083647;28;19986;-69
2023/09/21 02:40:14;;;;;;;;;;;;;;;;;;5087748;28;19924;-69
2023/09/21 02:42:41;;;;;;;;;;;;;;;;;;5090918;28;20023;-69
2023/09/21 02:45:09;;;;;;;;;;;;;;;;;;5093279;28;19928;-69
2023/09/21 02:47:37;;;;;;;;;;;;;;;;;;5092325;28;20337;-70
2023/09/21 02:50:14;;;;;;;;;;;;;;;;;;5092294;28;19936;-69
2023/09/21 02:52:41;;;;;;;;;;;;;;;;;;5092184;28;20379;-69
2023/09/21 02:55:08;;;;;;;;;;;;;;;;;;5091716;28;19925;-69
2023/09/21 02:57:36;;;;;;;;;;;;;;;;;;5089400;28;19925;-69
2023/09/21 03:00:13;;;;;;;;;;;;;;;;;;5092059;28;20440;-69
2023/09/21 03:02:40;;;;;;;;;;;;;;;;;;5092901;28;19928;-70
2023/09/21 03:05:10;;;;;;;;;;;;;;;;;;5093291;28;19927;-70
2023/09/21 03:07:41;;;;;;;;;;;;;;;;;;5092467;28;20018;-69
2023/09/21 03:10:09;;;;;;;;;;;;;;;;;;5093759;28;20360;-69
2023/09/21 03:12:37;;;;;;;;;;;;;;;;;;5091835;28;19924;-69
2023/09/21 03:15:07;;;;;;;;;;;;;;;;;;5092855;28;19924;-69
2023/09/21 03:17:34;;;;;;;;;;;;;;;;;;5091798;28;19978;-69
2023/09/21 03:20:11;;;;;;;;;;;;;;;;;;5092466;28;20343;-69
2023/09/21 03:22:38;;;;;;;;;;;;;;;;;;5091806;28;20013;-69
2023/09/21 03:25:07;;;;;;;;;;;;;;;;;;5092739;28;19948;-69
2023/09/21 03:27:34;;;;;;;;;;;;;;;;;;5092782;28;19924;-69
2023/09/21 03:30:05;;;;;;;;;;;;;;;;;;5085713;28;19932;-69
2023/09/21 03:32:32;;;;;;;;;;;;;;;;;;5092058;28;19928;-69
2023/09/21 03:34:59;;;;;;;;;;;;;;;;;;5092600;28;19978;-69
2023/09/21 03:37:26;;;;;;;;;;;;;;;;;;5091022;28;19928;-69
2023/09/21 03:39:53;;;;;;;;;;;;;;;;;;5094053;28;19931;-69
2023/09/21 03:42:23;;;;;;;;;;;;;;;;;;5090715;28;19924;-69
2023/09/21 03:44:50;;;;;;;;;;;;;;;;;;5092160;28;20362;-69
2023/09/21 03:47:17;;;;;;;;;;;;;;;;;;5086945;28;19986;-69
2023/09/21 03:49:45;;;;;;;;;;;;;;;;;;5092455;28;20256;-69
2023/09/21 03:52:16;;;;;;;;;;;;;;;;;;5091979;28;19924;-69
2023/09/21 03:54:43;;;;;;;;;;;;;;;;;;5091791;28;20367;-69
2023/09/21 03:57:11;;;;;;;;;;;;;;;;;;5092525;28;19970;-69
2023/09/21 03:59:39;;;;;;;;;;;;;;;;;;5092385;28;20290;-69
2023/09/21 04:02:08;;;;;;;;;;;;;;;;;;5091886;28;19924;-70
2023/09/21 04:04:35;;;;;;;;;;;;;;;;;;5090026;28;20019;-69
2023/09/21 04:07:02;;;;;;;;;;;;;;;;;;5091919;28;19952;-69
2023/09/21 04:09:29;;;;;;;;;;;;;;;;;;5090613;28;20379;-68
2023/09/21 04:11:57;;;;;;;;;;;;;;;;;;5091982;28;19955;-69
2023/09/21 04:14:24;;;;;;;;;;;;;;;;;;5090435;28;19931;-69
2023/09/21 04:16:52;;;;;;;;;;;;;;;;;;5090306;28;20018;-69
2023/09/21 04:19:19;;;;;;;;;;;;;;;;;;5090117;28;19931;-69
2023/09/21 04:21:46;;;;;;;;;;;;;;;;;;5084710;28;19924;-68
2023/09/21 04:24:14;;;;;;;;;;;;;;;;;;5081820;28;19931;-68
2023/09/21 04:26:41;;;;;;;;;;;;;;;;;;5089807;28;20046;-69
2023/09/21 04:29:09;;;;;;;;;;;;;;;;;;5090968;28;19924;-68
2023/09/21 04:31:36;;;;;;;;;;;;;;;;;;5088995;28;20384;-69
2023/09/21 04:34:03;;;;;;;;;;;;;;;;;;5088212;28;19924;-68
2023/09/21 04:36:30;;;;;;;;;;;;;;;;;;5090178;28;19970;-68
2023/09/21 04:38:59;;;;;;;;;;;;;;;;;;5088578;28;19971;-68
2023/09/21 04:41:27;;;;;;;;;;;;;;;;;;5092071;28;19928;-68
2023/09/21 04:43:55;;;;;;;;;;;;;;;;;;5086215;28;20424;-69
2023/09/21 04:46:22;;;;;;;;;;;;;;;;;;5090765;28;19924;-68
2023/09/21 04:48:49;;;;;;;;;;;;;;;;;;5089979;28;20425;-68
2023/09/21 04:51:17;;;;;;;;;;;;;;;;;;5091973;28;19924;-68
2023/09/21 04:53:45;;;;;;;;;;;;;;;;;;5091219;28;20391;-68
2023/09/21 04:56:13;;;;;;;;;;;;;;;;;;5093075;28;19931;-68
2023/09/21 04:58:40;;;;;;;;;;;;;;;;;;5094737;28;19924;-68
2023/09/21 05:01:10;;;;;;;;;;;;;;;;;;5092039;28;19924;-68
2023/09/21 05:03:37;;;;;;;;;;;;;;;;;;5093756;28;19924;-69
2023/09/21 05:06:04;;;;;;;;;;;;;;;;;;5091916;28;19935;-68
2023/09/21 05:08:36;;;;;;;;;;;;;;;;;;5089741;28;20353;-68
2023/09/21 05:11:03;;;;;;;;;;;;;;;;;;5090664;28;19924;-68
2023/09/21 05:13:31;;;;;;;;;;;;;;;;;;5092619;28;19928;-68
2023/09/21 05:15:58;;;;;;;;;;;;;;;;;;5094034;28;20390;-70
2023/09/21 05:18:25;;;;;;;;;;;;;;;;;;5089659;28;20017;-68
2023/09/21 05:20:52;;;;;;;;;;;;;;;;;;5090601;28;20405;-68
2023/09/21 05:23:19;;;;;;;;;;;;;;;;;;5081994;28;19924;-68
2023/09/21 05:25:46;;;;;;;;;;;;;;;;;;5092387;28;19960;-68
2023/09/21 05:28:14;;;;;;;;;;;;;;;;;;5093926;28;20329;-68
2023/09/21 05:30:41;;;;;;;;;;;;;;;;;;5088197;28;20002;-68
2023/09/21 05:33:08;;;;;;;;;;;;;;;;;;5094331;28;19928;-68
2023/09/21 05:35:36;;;;;;;;;;;;;;;;;;5093470;28;19985;-68
2023/09/21 05:38:05;;;;;;;;;;;;;;;;;;5094800;28;19928;-69
2023/09/21 05:40:32;;;;;;;;;;;;;;;;;;5094569;28;19925;-69
2023/09/21 05:43:00;;;;;;;;;;;;;;;;;;5091122;28;19967;-70
2023/09/21 05:45:27;;;;;;;;;;;;;;;;;;5085004;28;19925;-69
2023/09/21 05:47:54;;;;;;;;;;;;;;;;;;5092929;28;19924;-69
2023/09/21 05:50:22;;;;;;;;;;;;;;;;;;5094449;28;19985;-69
2023/09/21 05:52:49;;;;;;;;;;;;;;;;;;5092272;28;19932;-68
2023/09/21 05:55:16;;;;;;;;;;;;;;;;;;5093678;28;19924;-68
2023/09/21 05:57:47;;;;;;;;;;;;;;;;;;5093840;28;19931;-68
2023/09/21 06:00:14;;;;;;;;;;;;;;;;;;5093698;28;20331;-68
2023/09/21 06:02:41;;;;;;;;;;;;;;;;;;5086396;28;19925;-68
2023/09/21 06:05:08;;;;;;;;;;;;;;;;;;5084799;28;19924;-68
2023/09/21 06:07:35;;;;;;;;;;;;;;;;;;5092388;28;19931;-68
2023/09/21 06:10:06;;;;;;;;;;;;;;;;;;5091734;28;20375;-66
2023/09/21 06:12:33;;;;;;;;;;;;;;;;;;5089646;28;20299;-65
2023/09/21 06:15:00;;;;;;;;;;;;;;;;;;5091702;28;20391;-67
2023/09/21 06:17:27;;;;;;;;;;;;;;;;;;5084686;28;20016;-68
2023/09/21 06:19:54;;;;;;;;;;;;;;;;;;5089304;28;19928;-67
2023/09/21 06:22:21;;;;;;;;;;;;;;;;;;5089569;28;19924;-66
2023/09/21 06:24:48;;;;;;;;;;;;;;;;;;5093021;28;19930;-68
2023/09/21 06:27:17;;;;;;;;;;;;;;;;;;5089974;28;19924;-67
2023/09/21 06:29:44;;;;;;;;;;;;;;;;;;5084049;28;20404;-67
2023/09/21 06:32:11;;;;;;;;;;;;;;;;;;5091177;28;19924;-67
2023/09/21 06:34:41;;;;;;;;;;;;;;;;;;5087032;28;20272;-67
2023/09/21 06:37:08;;;;;;;;;;;;;;;;;;5084278;28;20043;-67
2023/09/21 06:39:36;;;;;;;;;;;;;;;;;;5086660;28;19930;-67
2023/09/21 06:42:03;;;;;;;;;;;;;;;;;;5085639;28;20371;-66
2023/09/21 06:44:30;;;;;;;;;;;;;;;;;;5075808;28;19980;-67
2023/09/21 06:46:57;;;;;;;;;;;;;;;;;;5086901;28;20001;-67
2023/09/21 06:49:26;;;;;;;;;;;;;;;;;;5079065;22;20018;-67
2023/09/21 06:51:54;;;;;;;;;;;;;;;;;;5030940;28;20277;-67
2023/09/21 06:54:23;;;;;;;;;;;;;;;;;;5028847;28;19987;-67
2023/09/21 06:56:50;;;;;;;;;;;;;;;;;;5044328;28;20277;-67
2023/09/21 06:59:17;;;;;;;;;;;;;;;;;;5050731;28;19925;-67
2023/09/21 07:01:44;;;;;;;;;;;;;;;;;;5051796;28;19964;-67
2023/09/21 07:04:11;;;;;;;;;;;;;;;;;;5049362;28;19929;-68
2023/09/21 07:06:39;;;;;;;;;;;;;;;;;;5048382;28;19929;-68
2023/09/21 07:09:06;;;;;;;;;;;;;;;;;;5050284;28;19929;-67
2023/09/21 07:11:33;;;;;;;;;;;;;;;;;;5046957;28;19924;-68
2023/09/21 07:14:00;;;;;;;;;;;;;;;;;;5047143;28;19928;-68
2023/09/21 07:16:27;;;;;;;;;;;;;;;;;;5050304;28;19925;-68
2023/09/21 07:18:54;;;;;;;;;;;;;;;;;;5048813;28;19932;-68
2023/09/21 07:21:21;;;;;;;;;;;;;;;;;;5048566;28;19971;-68
2023/09/21 07:23:48;;;;;;;;;;;;;;;;;;5051323;28;19928;-68
2023/09/21 07:26:15;;;;;;;;;;;;;;;;;;5049639;28;19924;-68
2023/09/21 07:28:44;;;;;;;;;;;;;;;;;;5050220;28;20053;-68
2023/09/21 07:31:11;;;;;;;;;;;;;;;;;;5049578;28;20433;-69
2023/09/21 07:33:38;;;;;;;;;;;;;;;;;;5046678;28;19978;-70
2023/09/21 07:36:06;;;;;;;;;;;;;;;;;;5050297;28;19924;-70
2023/09/21 07:38:33;;;;;;;;;;;;;;;;;;5046160;28;19986;-70
2023/09/21 07:41:00;;;;;;;;;;;;;;;;;;5052147;28;19932;-70
2023/09/21 07:43:28;;;;;;;;;;;;;;;;;;5046790;28;19978;-69
2023/09/21 07:45:57;;;;;;;;;;;;;;;;;;5047714;28;19978;-69
2023/09/21 07:48:26;;;;;;;;;;;;;;;;;;5040148;28;19983;-68
2023/09/21 07:50:56;;;;;;;;;;;;;;;;;;5048245;28;19935;-67
2023/09/21 07:53:23;;;;;;;;;;;;;;;;;;5042077;28;19928;-67
2023/09/21 07:55:50;;;;;;;;;;;;;;;;;;5035804;28;20064;-68
2023/09/21 07:58:17;;;;;;;;;;;;;;;;;;5043756;28;19928;-67
2023/09/21 08:00:44;;;;;;;;;;;;;;;;;;5045381;28;19978;-68
2023/09/21 08:03:13;;;;;;;;;;;;;;;;;;5044424;28;19925;-68
2023/09/21 08:05:40;;;;;;;;;;;;;;;;;;5055137;28;19925;-69
2023/09/21 08:08:07;;;;;;;;;;;;;;;;;;5044831;28;19976;-69
2023/09/21 08:10:34;;;;;;;;;;;;;;;;;;5043386;28;19998;-69
2023/09/21 08:13:01;;;;;;;;;;;;;;;;;;5043583;28;19925;-68
2023/09/21 08:15:28;;;;;;;;;;;;;;;;;;5057792;28;19986;-69
2023/09/21 08:17:55;;;;;;;;;;;;;;;;;;5043350;28;19925;-68
2023/09/21 08:20:22;;;;;;;;;;;;;;;;;;5046754;28;20342;-69
2023/09/21 08:22:49;;;;;;;;;;;;;;;;;;5045862;28;20380;-69
2023/09/21 08:25:16;;;;;;;;;;;;;;;;;;5043825;28;19932;-69
2023/09/21 08:27:43;;;;;;;;;;;;;;;;;;5049468;28;19928;-69
2023/09/21 08:30:12;;;;;;;;;;;;;;;;;;5046263;28;19956;-69
2023/09/21 08:32:40;;;;;;;;;;;;;;;;;;5050250;28;19929;-69
2023/09/21 08:35:07;;;;;;;;;;;;;;;;;;5045413;28;20730;-70
2023/09/21 08:37:35;;;;;;;;;;;;;;;;;;5041510;28;19925;-74
2023/09/21 08:40:06;;;;;;;;;;;;;;;;;;5044439;28;19925;-70
2023/09/21 08:42:35;;;;;;;;;;;;;;;;;;5047315;28;19987;-68
2023/09/21 08:45:02;;;;;;;;;;;;;;;;;;5049341;28;20346;-67
2023/09/21 08:47:29;;;;;;;;;;;;;;;;;;5058446;28;19932;-67
2023/09/21 08:49:57;;;;;;;;;;;;;;;;;;5050180;28;20380;-67
2023/09/21 08:52:25;;;;;;;;;;;;;;;;;;5050157;28;19925;-66
2023/09/21 08:54:52;;;;;;;;;;;;;;;;;;5045105;28;20344;-65
2023/09/21 08:57:19;;;;;;;;;;;;;;;;;;5046865;28;19932;-66
2023/09/21 08:59:48;;;;;;;;;;;;;;;;;;5049503;28;19925;-66
2023/09/21 09:02:15;;;;;;;;;;;;;;;;;;5044636;28;19925;-65
2023/09/21 09:04:42;;;;;;;;;;;;;;;;;;5050015;28;19925;-65
2023/09/21 09:07:10;;;;;;;;;;;;;;;;;;5039675;28;19947;-66
2023/09/21 09:09:39;;;;;;;;;;;;;;;;;;5051112;28;19925;-66
2023/09/21 09:12:06;;;;;;;;;;;;;;;;;;5051954;28;19929;-65
2023/09/21 09:14:33;;;;;;;;;;;;;;;;;;5049267;28;19925;-65
2023/09/21 09:17:00;;;;;;;;;;;;;;;;;;5048681;28;20343;-66
2023/09/21 09:19:27;;;;;;;;;;;;;;;;;;5048754;28;19936;-65
2023/09/21 09:21:54;;;;;;;;;;;;;;;;;;5032444;28;20059;-65
2023/09/21 09:24:22;;;;;;;;;;;;;;;;;;5050433;28;20307;-65
2023/09/21 09:26:49;;;;;;;;;;;;;;;;;;5049017;28;20356;-65
2023/09/21 09:29:17;;;;;;;;;;;;;;;;;;5046943;28;19963;-63
2023/09/21 09:31:44;;;;;;;;;;;;;;;;;;5046453;28;20028;-65
2023/09/21 09:34:16;;;;;;;;;;;;;;;;;;5050359;28;19925;-66
2023/09/21 09:36:45;;;;;;;;;;;;;;;;;;5050801;28;19964;-65
2023/09/21 09:39:14;;;;;;;;;;;;;;;;;;5053144;28;19932;-65
2023/09/21 09:41:41;;;;;;;;;;;;;;;;;;5051931;28;20019;-66
2023/09/21 09:44:09;;;;;;;;;;;;;;;;;;5058821;28;19925;-64
2023/09/21 09:46:36;;;;;;;;;;;;;;;;;;5047078;28;20011;-65
2023/09/21 09:49:03;;;;;;;;;;;;;;;;;;5045870;28;19944;-64
2023/09/21 09:51:30;;;;;;;;;;;;;;;;;;5052621;28;19925;-64
2023/09/21 09:53:57;;;;;;;;;;;;;;;;;;5050461;28;19928;-64
2023/09/21 09:56:24;;;;;;;;;;;;;;;;;;5048247;28;19925;-64
2023/09/21 09:58:51;;;;;;;;;;;;;;;;;;5051526;28;19928;-65
2023/09/21 10:01:19;;;;;;;;;;;;;;;;;;5046915;28;19932;-64
2023/09/21 10:03:50;;;;;;;;;;;;;;;;;;5038335;28;19932;-65
2023/09/21 10:06:17;;;;;;;;;;;;;;;;;;5049951;28;19936;-66
2023/09/21 10:08:46;;;;;;;;;;;;;;;;;;5051954;28;20342;-65
2023/09/21 10:11:13;;;;;;;;;;;;;;;;;;5042100;28;20342;-65
2023/09/21 10:13:40;;;;;;;;;;;;;;;;;;5049584;28;19971;-66
2023/09/21 10:16:07;;;;;;;;;;;;;;;;;;5050439;28;19978;-65
2023/09/21 10:18:36;;;;;;;;;;;;;;;;;;5053293;28;20021;-65
2023/09/21 10:21:03;;;;;;;;;;;;;;;;;;5052007;28;19932;-65
2023/09/21 10:23:33;;;;;;;;;;;;;;;;;;5042704;28;19929;-66
2023/09/21 10:26:00;;;;;;;;;;;;;;;;;;5047908;28;19932;-66
2023/09/21 10:28:27;;;;;;;;;;;;;;;;;;5053252;28;19928;-66
2023/09/21 10:30:54;;;;;;;;;;;;;;;;;;5053229;28;19964;-65
2023/09/21 10:33:22;;;;;;;;;;;;;;;;;;5050826;28;19932;-65
2023/09/21 10:35:49;;;;;;;;;;;;;;;;;;5047504;28;20292;-65
2023/09/21 10:38:16;;;;;;;;;;;;;;;;;;5052744;28;20338;-66
2023/09/21 10:40:43;;;;;;;;;;;;;;;;;;5050066;28;19929;-66
2023/09/21 10:43:11;;;;;;;;;;;;;;;;;;5051013;28;20460;-66
2023/09/21 10:45:38;;;;;;;;;;;;;;;;;;5052814;28;20464;-65
2023/09/21 10:48:06;;;;;;;;;;;;;;;;;;5051728;28;20382;-65
2023/09/21 10:50:33;;;;;;;;;;;;;;;;;;5053368;28;20002;-66
2023/09/21 10:53:01;;;;;;;;;;;;;;;;;;5053288;28;19932;-66
2023/09/21 10:55:28;;;;;;;;;;;;;;;;;;5053148;28;19925;-66
2023/09/21 10:57:55;;;;;;;;;;;;;;;;;;5053671;28;19924;-66
2023/09/21 11:00:22;;;;;;;;;;;;;;;;;;5052992;28;19970;-68
2023/09/21 11:02:49;;;;;;;;;;;;;;;;;;5052616;28;19925;-66
2023/09/21 11:05:17;;;;;;;;;;;;;;;;;;5051020;28;20403;-65
2023/09/21 11:07:44;;;;;;;;;;;;;;;;;;5053128;28;19925;-64
2023/09/21 11:10:12;;;;;;;;;;;;;;;;;;5053134;28;19925;-65
2023/09/21 11:12:40;;;;;;;;;;;;;;;;;;5048626;28;19941;-66
2023/09/21 11:15:09;;;;;;;;;;;;;;;;;;5047083;28;19972;-65
2023/09/21 11:17:36;;;;;;;;;;;;;;;;;;5050480;28;19959;-65
2023/09/21 11:20:04;;;;;;;;;;;;;;;;;;5051295;28;19968;-65
2023/09/21 11:22:31;;;;;;;;;;;;;;;;;;5052584;28;19924;-66
2023/09/21 11:24:58;;;;;;;;;;;;;;;;;;5048934;28;19935;-65
2023/09/21 11:27:25;;;;;;;;;;;;;;;;;;5046859;28;20047;-66
2023/09/21 11:29:53;;;;;;;;;;;;;;;;;;5045753;28;20450;-66
2023/09/21 11:32:20;;;;;;;;;;;;;;;;;;5041980;28;20037;-65
2023/09/21 11:34:47;;;;;;;;;;;;;;;;;;5049432;28;19978;-65
2023/09/21 11:37:15;;;;;;;;;;;;;;;;;;5052689;28;19924;-65
2023/09/21 11:39:44;;;;;;;;;;;;;;;;;;5052541;28;19925;-65
2023/09/21 11:42:12;;;;;;;;;;;;;;;;;;5050893;28;19925;-65
2023/09/21 11:44:39;;;;;;;;;;;;;;;;;;5048385;28;19932;-65
2023/09/21 11:47:06;;;;;;;;;;;;;;;;;;5041556;28;19925;-65
2023/09/21 11:49:33;;;;;;;;;;;;;;;;;;5034295;28;19947;-66
2023/09/21 11:52:00;;;;;;;;;;;;;;;;;;5048571;28;19925;-65
2023/09/21 11:54:29;;;;;;;;;;;;;;;;;;5040737;28;20399;-66
2023/09/21 11:56:56;;;;;;;;;;;;;;;;;;5048887;28;19928;-65
2023/09/21 11:59:23;;;;;;;;;;;;;;;;;;5047520;28;19968;-66
2023/09/21 12:01:51;;;;;;;;;;;;;;;;;;5051839;28;19925;-65
2023/09/21 12:04:19;;;;;;;;;;;;;;;;;;5044427;28;19925;-65
2023/09/21 12:06:46;;;;;;;;;;;;;;;;;;5043698;28;19932;-65
2023/09/21 12:09:13;;;;;;;;;;;;;;;;;;5048074;28;19951;-66
2023/09/21 12:11:40;;;;;;;;;;;;;;;;;;5041699;28;19925;-66
2023/09/21 12:14:08;;;;;;;;;;;;;;;;;;5046805;28;19925;-66
2023/09/21 12:16:35;;;;;;;;;;;;;;;;;;5051330;28;19925;-66
2023/09/21 12:19:08;;;;;;;;;;;;;;;;;;5033898;28;19972;-65
2023/09/21 12:21:35;;;;;;;;;;;;;;;;;;5048335;28;19924;-65
2023/09/21 12:24:02;;;;;;;;;;;;;;;;;;5044465;28;20291;-65
2023/09/21 12:26:30;;;;;;;;;;;;;;;;;;5039493;28;20041;-65
2023/09/21 12:28:57;;;;;;;;;;;;;;;;;;5049690;28;19925;-65
2023/09/21 12:31:25;;;;;;;;;;;;;;;;;;5048886;28;19925;-65
2023/09/21 12:33:52;;;;;;;;;;;;;;;;;;5049761;28;19925;-65
2023/09/21 12:36:19;;;;;;;;;;;;;;;;;;5051655;28;19932;-65
2023/09/21 12:38:46;;;;;;;;;;;;;;;;;;5049959;28;19928;-64
2023/09/21 12:41:14;;;;;;;;;;;;;;;;;;5048072;28;20471;-65
2023/09/21 12:43:42;;;;;;;;;;;;;;;;;;5041918;28;20348;-65
2023/09/21 12:46:09;;;;;;;;;;;;;;;;;;5049085;28;19925;-65
2023/09/21 12:48:37;;;;;;;;;;;;;;;;;;5048308;28;19983;-65
2023/09/21 12:51:04;;;;;;;;;;;;;;;;;;5049202;28;19946;-70
2023/09/21 12:53:31;;;;;;;;;;;;;;;;;;5040163;28;19933;-70
2023/09/21 12:55:58;;;;;;;;;;;;;;;;;;5046091;28;20029;-70
2023/09/21 12:58:25;;;;;;;;;;;;;;;;;;5050157;28;20245;-69
2023/09/21 13:00:52;;;;;;;;;;;;;;;;;;5050030;28;19925;-70
2023/09/21 13:03:19;;;;;;;;;;;;;;;;;;5051515;28;19978;-70
2023/09/21 13:05:47;;;;;;;;;;;;;;;;;;5050403;28;19982;-70
2023/09/21 13:08:14;;;;;;;;;;;;;;;;;;5048387;28;20352;-70
2023/09/21 13:10:41;;;;;;;;;;;;;;;;;;5040569;28;19952;-71
2023/09/21 13:13:08;;;;;;;;;;;;;;;;;;5036818;28;19987;-70
2023/09/21 13:15:35;;;;;;;;;;;;;;;;;;5046629;28;19925;-71
2023/09/21 13:18:03;;;;;;;;;;;;;;;;;;5035270;28;19931;-71
2023/09/21 13:20:30;;;;;;;;;;;;;;;;;;5046301;28;19924;-71
2023/09/21 13:22:58;;;;;;;;;;;;;;;;;;5045854;28;20303;-71
2023/09/21 13:25:27;;;;;;;;;;;;;;;;;;5054804;28;19925;-71
2023/09/21 13:27:54;;;;;;;;;;;;;;;;;;5053638;28;19947;-72
2023/09/21 13:30:21;;;;;;;;;;;;;;;;;;5049797;28;19960;-72
2023/09/21 13:32:49;;;;;;;;;;;;;;;;;;5034457;28;20361;-72
2023/09/21 13:35:17;;;;;;;;;;;;;;;;;;5049612;28;19935;-73
2023/09/21 13:37:44;;;;;;;;;;;;;;;;;;5054111;28;19931;-73
2023/09/21 13:40:11;;;;;;;;;;;;;;;;;;5052159;28;19979;-71
2023/09/21 13:42:39;;;;;;;;;;;;;;;;;;5049876;28;20025;-71
2023/09/21 13:45:07;;;;;;;;;;;;;;;;;;5041121;28;20070;-77
2023/09/21 13:47:34;;;;;;;;;;;;;;;;;;5050951;28;19956;-72
2023/09/21 13:50:01;;;;;;;;;;;;;;;;;;5049774;28;19924;-71
2023/09/21 13:52:28;;;;;;;;;;;;;;;;;;5066842;28;19929;-71
2023/09/21 13:54:56;;;;;;;;;;;;;;;;;;5064330;28;19933;-70
2023/09/21 13:57:28;;;;;;;;;;;;;;;;;;5052765;28;20333;-70
2023/09/21 13:59:56;;;;;;;;;;;;;;;;;;5050873;28;19948;-65
2023/09/21 14:02:23;;;;;;;;;;;;;;;;;;5052084;28;19925;-65
2023/09/21 14:04:50;;;;;;;;;;;;;;;;;;5053526;28;19936;-66
2023/09/21 14:07:17;;;;;;;;;;;;;;;;;;5053205;28;19990;-65
2023/09/21 14:09:44;;;;;;;;;;;;;;;;;;5051914;28;19925;-65
2023/09/21 14:12:11;;;;;;;;;;;;;;;;;;5053212;28;19932;-65
2023/09/21 14:14:38;;;;;;;;;;;;;;;;;;5052782;28;19971;-65
2023/09/21 14:17:05;;;;;;;;;;;;;;;;;;5070006;28;19997;-66
2023/09/21 14:19:32;;;;;;;;;;;;;;;;;;5065679;28;19970;-66
2023/09/21 14:21:59;;;;;;;;;;;;;;;;;;5044297;28;19925;-66
2023/09/21 14:24:26;;;;;;;;;;;;;;;;;;5034024;28;19929;-66
2023/09/21 14:26:53;;;;;;;;;;;;;;;;;;5045379;28;19932;-66
2023/09/21 14:29:21;;;;;;;;;;;;;;;;;;5058817;28;19931;-65
2023/09/21 14:31:48;;;;;;;;;;;;;;;;;;5053052;28;19978;-65
2023/09/21 14:34:15;;;;;;;;;;;;;;;;;;5056687;28;19924;-65
2023/09/21 14:36:43;;;;;;;;;;;;;;;;;;5047099;28;19925;-67
2023/09/21 14:39:10;;;;;;;;;;;;;;;;;;5045733;28;19924;-67
2023/09/21 14:41:37;;;;;;;;;;;;;;;;;;5037966;28;19929;-65
2023/09/21 14:44:04;;;;;;;;;;;;;;;;;;5040790;28;19944;-66
2023/09/21 14:46:34;;;;;;;;;;;;;;;;;;5044775;28;20379;-65
2023/09/21 14:49:02;;;;;;;;;;;;;;;;;;5048095;28;19933;-66
2023/09/21 14:51:29;;;;;;;;;;;;;;;;;;5046461;28;20464;-65
2023/09/21 14:53:56;;;;;;;;;;;;;;;;;;5048966;28;19924;-66
2023/09/21 14:56:24;;;;;;;;;;;;;;;;;;5047660;28;19933;-66
2023/09/21 14:58:51;;;;;;;;;;;;;;;;;;5040695;28;19939;-66
2023/09/21 15:01:18;;;;;;;;;;;;;;;;;;5043652;28;19928;-66
2023/09/21 15:03:45;;;;;;;;;;;;;;;;;;5042686;28;21942;-66
2023/09/21 15:06:12;;;;;;;;;;;;;;;;;;5038482;28;19929;-66
2023/09/21 15:08:39;;;;;;;;;;;;;;;;;;5041175;28;19925;-65
2023/09/21 15:11:06;;;;;;;;;;;;;;;;;;5047394;28;20039;-66
2023/09/21 15:13:33;;;;;;;;;;;;;;;;;;5048694;28;19924;-66
2023/09/21 15:16:01;;;;;;;;;;;;;;;;;;5043497;28;19933;-66
2023/09/21 15:18:28;;;;;;;;;;;;;;;;;;5049972;28;20363;-66
2023/09/21 15:20:55;;;;;;;;;;;;;;;;;;5043435;28;19978;-66
2023/09/21 15:23:22;;;;;;;;;;;;;;;;;;5038605;28;19967;-65
2023/09/21 15:25:49;;;;;;;;;;;;;;;;;;5038961;28;19924;-66
2023/09/21 15:28:16;;;;;;;;;;;;;;;;;;5041542;28;19933;-66
2023/09/21 15:30:43;;;;;;;;;;;;;;;;;;5047883;28;19940;-66
2023/09/21 15:33:10;;;;;;;;;;;;;;;;;;5044532;28;20791;-66
2023/09/21 15:35:37;;;;;;;;;;;;;;;;;;5042319;28;19932;-68
2023/09/21 15:38:04;;;;;;;;;;;;;;;;;;5039924;28;19932;-65
2023/09/21 15:40:32;;;;;;;;;;;;;;;;;;5038793;28;20062;-68
2023/09/21 15:42:59;;;;;;;;;;;;;;;;;;5046107;28;21053;-66
2023/09/21 15:45:27;;;;;;;;;;;;;;;;;;5059323;28;19929;-66
2023/09/21 15:47:54;;;;;;;;;;;;;;;;;;5052261;28;20035;-67
2023/09/21 15:50:21;;;;;;;;;;;;;;;;;;5051206;28;19924;-66
2023/09/21 15:52:48;;;;;;;;;;;;;;;;;;5042455;28;20399;-65
2023/09/21 15:55:15;;;;;;;;;;;;;;;;;;5042443;28;20022;-65
2023/09/21 15:57:42;;;;;;;;;;;;;;;;;;5044391;28;19950;-66
2023/09/21 16:00:11;;;;;;;;;;;;;;;;;;5043404;28;20426;-66
2023/09/21 16:02:38;;;;;;;;;;;;;;;;;;5050566;28;20019;-64
2023/09/21 16:05:05;;;;;;;;;;;;;;;;;;5051138;28;19924;-65
2023/09/21 16:07:32;;;;;;;;;;;;;;;;;;5049715;28;19924;-64
2023/09/21 16:09:59;;;;;;;;;;;;;;;;;;5050095;28;19925;-64
2023/09/21 16:12:27;;;;;;;;;;;;;;;;;;5046393;28;19979;-64
2023/09/21 16:14:54;;;;;;;;;;;;;;;;;;5043541;28;19925;-64
2023/09/21 16:17:21;;;;;;;;;;;;;;;;;;5049396;28;20098;-64
2023/09/21 16:19:48;;;;;;;;;;;;;;;;;;5048047;28;20411;-64
2023/09/21 16:22:15;;;;;;;;;;;;;;;;;;5044270;28;19940;-65
2023/09/21 16:24:42;;;;;;;;;;;;;;;;;;5038806;28;19937;-65
2023/09/21 16:27:09;;;;;;;;;;;;;;;;;;5043309;28;19933;-65
2023/09/21 16:29:37;;;;;;;;;;;;;;;;;;5044933;28;19940;-65
2023/09/21 16:32:04;;;;;;;;;;;;;;;;;;5044575;28;19935;-65
2023/09/21 16:34:31;;;;;;;;;;;;;;;;;;5047794;28;19976;-65
2023/09/21 16:36:58;;;;;;;;;;;;;;;;;;5049561;28;20020;-66
2023/09/21 16:39:27;;;;;;;;;;;;;;;;;;5053649;28;19978;-65
2023/09/21 16:41:54;;;;;;;;;;;;;;;;;;5050283;28;20015;-66
2023/09/21 16:44:22;;;;;;;;;;;;;;;;;;5048145;28;20002;-64
2023/09/21 16:46:49;;;;;;;;;;;;;;;;;;5056293;28;20271;-65